CheckWX is a tool to help pilots better visualize weather data.  It is not intended as a substitute for an official pre-flight weather briefing.

00:54:55 UTC

KCWN METAR
Cheyenne Mountain Airport
Cheyenne Mountain, Colorado, USA
Current

57 mins ago

KCWN 232358Z AUTO 00000KT 10SM SCT026 SCT032 06/00 A2991 RMK AO2 SLP038 T00570001 10098 20056 52014 $
Observed
Mar-23 @ 23:58 UTC
Visibility
10 SM
Flight Rules
VFR
Cloud Levels
  • Scattered at 2,600' AGL
  • Scattered at 3,200' AGL
Temperature
C / 43°F
Dewpoint
C / 32°F
Humidity
66%
Altimeter
29.91" Hg
Pressure
1003.8 hPa
Previous

1 hour ago

KCWN 232353Z AUTO 00000KT 10SM SCT026 06/00 A2991 RMK AO2 SLP038 $
Observed
Mar-23 @ 23:53 UTC
Visibility
10 SM
Flight Rules
VFR
Cloud Levels
  • Scattered at 2,600' AGL
Temperature
C / 43°F
Dewpoint
C / 32°F
Humidity
66%
Altimeter
29.91" Hg
Pressure
1003.8 hPa
Previous

2 hours ago

KCWN 232258Z AUTO 00000KT 10SM SCT030 BKN075 07/00 A2990 RMK AO2 SLP028 T00671003 $
Observed
Mar-23 @ 22:58 UTC
Visibility
10 SM
Flight Rules
VFR
Cloud Levels
  • Scattered at 3,000' AGL
  • Broken at 7,500' AGL
Temperature
C / 45°F
Dewpoint
-0°C / 32°F
Humidity
61%
Altimeter
29.9" Hg
Pressure
1002.8 hPa